Terminal Aerodrome Forecast
Issued by NWS

Home | Current Version | Previous Version | Text Only | Print | Product List | Glossary On
Versions: 1 2 3 4 5 6 7 8 9 10 11 12 13 14 15 16 17 18 19 20 21 22 23 24 25 26 27
000
FTUS44 KOUN 071141
TAFLAW
TAF
KLAW 071141Z 0712/0812 02011KT P6SM BKN020 OVC100
     FM071400 05012KT P6SM -SHRA BKN020 OVC050
      TEMPO 0714/0718 3SM -TSRA SCT010 BKN020CB
     FM071800 03010KT 4SM RA OVC010
      TEMPO 0718/0722 1SM -TSRA BKN012CB
     FM080300 35012KT P6SM SCT012 BKN025=

USA.gov is the U.S. government's official web portal to all federal, state and local government web resources and services.